sensor_id;sensor_type;location;lat;lon;timestamp;P1;durP1;ratioP1;P2;durP2;ratioP2
4569;SDS011;2297;51.442;6.996;2024-03-22T00:00:12;42.85;;;18.17;;
4569;SDS011;2297;51.442;6.996;2024-03-22T00:02:38;36.72;;;16.95;;
4569;SDS011;2297;51.442;6.996;2024-03-22T00:05:04;33.53;;;15.90;;
4569;SDS011;2297;51.442;6.996;2024-03-22T00:07:30;34.53;;;16.50;;
4569;SDS011;2297;51.442;6.996;2024-03-22T00:09:57;34.92;;;16.40;;
4569;SDS011;2297;51.442;6.996;2024-03-22T00:12:22;35.83;;;17.25;;
4569;SDS011;2297;51.442;6.996;2024-03-22T00:14:50;39.33;;;17.65;;
4569;SDS011;2297;51.442;6.996;2024-03-22T00:17:19;32.78;;;16.95;;
4569;SDS011;2297;51.442;6.996;2024-03-22T00:19:46;33.72;;;17.08;;
4569;SDS011;2297;51.442;6.996;2024-03-22T00:22:11;37.88;;;17.15;;
4569;SDS011;2297;51.442;6.996;2024-03-22T00:24:38;35.22;;;18.23;;
4569;SDS011;2297;51.442;6.996;2024-03-22T00:27:04;35.58;;;16.25;;
4569;SDS011;2297;51.442;6.996;2024-03-22T00:29:31;38.95;;;17.83;;
4569;SDS011;2297;51.442;6.996;2024-03-22T00:31:58;32.80;;;16.70;;
4569;SDS011;2297;51.442;6.996;2024-03-22T00:34:24;35.78;;;17.27;;
4569;SDS011;2297;51.442;6.996;2024-03-22T00:36:50;37.72;;;18.33;;
4569;SDS011;2297;51.442;6.996;2024-03-22T00:39:17;36.40;;;16.83;;
4569;SDS011;2297;51.442;6.996;2024-03-22T00:41:42;37.67;;;17.50;;
4569;SDS011;2297;51.442;6.996;2024-03-22T00:44:09;36.08;;;17.30;;
4569;SDS011;2297;51.442;6.996;2024-03-22T00:46:34;35.45;;;17.60;;
4569;SDS011;2297;51.442;6.996;2024-03-22T00:49:03;36.67;;;17.55;;
4569;SDS011;2297;51.442;6.996;2024-03-22T00:51:28;42.65;;;18.20;;
4569;SDS011;2297;51.442;6.996;2024-03-22T00:53:55;38.00;;;16.98;;
4569;SDS011;2297;51.442;6.996;2024-03-22T00:56:21;36.78;;;17.80;;
4569;SDS011;2297;51.442;6.996;2024-03-22T00:58:48;34.58;;;16.23;;
4569;SDS011;2297;51.442;6.996;2024-03-22T01:01:13;36.45;;;17.75;;
4569;SDS011;2297;51.442;6.996;2024-03-22T01:03:40;37.55;;;17.67;;
4569;SDS011;2297;51.442;6.996;2024-03-22T01:06:07;40.35;;;18.45;;
4569;SDS011;2297;51.442;6.996;2024-03-22T01:08:33;34.65;;;16.85;;
4569;SDS011;2297;51.442;6.996;2024-03-22T01:10:59;41.15;;;18.88;;
4569;SDS011;2297;51.442;6.996;2024-03-22T01:13:26;36.33;;;17.55;;
4569;SDS011;2297;51.442;6.996;2024-03-22T01:15:51;39.90;;;18.00;;
4569;SDS011;2297;51.442;6.996;2024-03-22T01:18:18;34.08;;;16.92;;
4569;SDS011;2297;51.442;6.996;2024-03-22T01:20:44;37.42;;;17.80;;
4569;SDS011;2297;51.442;6.996;2024-03-22T01:23:12;36.42;;;17.17;;
4569;SDS011;2297;51.442;6.996;2024-03-22T01:25:38;44.30;;;17.48;;
4569;SDS011;2297;51.442;6.996;2024-03-22T01:28:05;35.20;;;17.45;;
4569;SDS011;2297;51.442;6.996;2024-03-22T01:30:30;35.78;;;17.42;;
4569;SDS011;2297;51.442;6.996;2024-03-22T01:32:59;36.15;;;17.83;;
4569;SDS011;2297;51.442;6.996;2024-03-22T01:35:24;41.67;;;18.80;;
4569;SDS011;2297;51.442;6.996;2024-03-22T01:37:51;35.55;;;17.55;;
4569;SDS011;2297;51.442;6.996;2024-03-22T01:40:18;35.17;;;17.98;;
4569;SDS011;2297;51.442;6.996;2024-03-22T01:42:48;35.40;;;17.73;;
4569;SDS011;2297;51.442;6.996;2024-03-22T01:45:17;40.35;;;19.25;;
4569;SDS011;2297;51.442;6.996;2024-03-22T01:47:45;35.00;;;17.13;;
4569;SDS011;2297;51.442;6.996;2024-03-22T01:50:10;36.90;;;16.63;;
4569;SDS011;2297;51.442;6.996;2024-03-22T01:52:38;38.05;;;18.17;;
4569;SDS011;2297;51.442;6.996;2024-03-22T01:55:05;34.85;;;16.90;;
4569;SDS011;2297;51.442;6.996;2024-03-22T01:57:34;35.13;;;17.13;;
4569;SDS011;2297;51.442;6.996;2024-03-22T02:00:01;39.63;;;18.58;;
4569;SDS011;2297;51.442;6.996;2024-03-22T02:02:28;41.92;;;18.42;;
4569;SDS011;2297;51.442;6.996;2024-03-22T02:04:54;41.17;;;18.90;;
4569;SDS011;2297;51.442;6.996;2024-03-22T02:07:22;39.50;;;18.35;;
4569;SDS011;2297;51.442;6.996;2024-03-22T02:09:47;40.35;;;18.85;;
4569;SDS011;2297;51.442;6.996;2024-03-22T02:12:14;35.15;;;16.50;;
4569;SDS011;2297;51.442;6.996;2024-03-22T02:14:47;36.45;;;18.50;;
4569;SDS011;2297;51.442;6.996;2024-03-22T02:17:14;39.13;;;17.60;;
4569;SDS011;2297;51.442;6.996;2024-03-22T02:19:39;35.42;;;17.48;;
4569;SDS011;2297;51.442;6.996;2024-03-22T02:22:06;38.00;;;18.33;;
4569;SDS011;2297;51.442;6.996;2024-03-22T02:24:33;35.85;;;18.17;;
4569;SDS011;2297;51.442;6.996;2024-03-22T02:27:00;43.10;;;19.25;;
4569;SDS011;2297;51.442;6.996;2024-03-22T02:29:25;37.88;;;17.90;;
4569;SDS011;2297;51.442;6.996;2024-03-22T02:31:53;42.45;;;19.20;;
4569;SDS011;2297;51.442;6.996;2024-03-22T02:34:18;40.17;;;18.77;;
4569;SDS011;2297;51.442;6.996;2024-03-22T02:36:45;40.80;;;18.77;;
4569;SDS011;2297;51.442;6.996;2024-03-22T02:39:10;40.00;;;18.88;;
4569;SDS011;2297;51.442;6.996;2024-03-22T02:41:38;36.03;;;17.42;;
4569;SDS011;2297;51.442;6.996;2024-03-22T02:44:04;36.00;;;17.75;;
4569;SDS011;2297;51.442;6.996;2024-03-22T02:46:30;36.85;;;18.83;;
4569;SDS011;2297;51.442;6.996;2024-03-22T02:48:56;34.50;;;19.02;;
4569;SDS011;2297;51.442;6.996;2024-03-22T02:51:23;36.20;;;19.08;;
4569;SDS011;2297;51.442;6.996;2024-03-22T02:53:48;35.08;;;17.80;;
4569;SDS011;2297;51.442;6.996;2024-03-22T02:56:15;36.83;;;18.27;;
4569;SDS011;2297;51.442;6.996;2024-03-22T02:58:42;38.78;;;18.55;;
4569;SDS011;2297;51.442;6.996;2024-03-22T03:01:08;39.45;;;18.85;;
4569;SDS011;2297;51.442;6.996;2024-03-22T03:03:34;39.88;;;18.65;;
4569;SDS011;2297;51.442;6.996;2024-03-22T03:06:00;36.80;;;17.98;;
4569;SDS011;2297;51.442;6.996;2024-03-22T03:08:29;32.22;;;16.95;;
4569;SDS011;2297;51.442;6.996;2024-03-22T03:10:55;40.90;;;19.02;;
4569;SDS011;2297;51.442;6.996;2024-03-22T03:13:21;40.25;;;20.02;;
4569;SDS011;2297;51.442;6.996;2024-03-22T03:15:49;33.05;;;17.67;;
4569;SDS011;2297;51.442;6.996;2024-03-22T03:18:14;36.95;;;17.60;;
4569;SDS011;2297;51.442;6.996;2024-03-22T03:20:41;34.78;;;17.92;;
4569;SDS011;2297;51.442;6.996;2024-03-22T03:23:07;38.22;;;17.73;;
4569;SDS011;2297;51.442;6.996;2024-03-22T03:25:33;39.53;;;18.92;;
4569;SDS011;2297;51.442;6.996;2024-03-22T03:27:59;34.15;;;17.48;;
4569;SDS011;2297;51.442;6.996;2024-03-22T03:30:25;36.80;;;17.98;;
4569;SDS011;2297;51.442;6.996;2024-03-22T03:32:52;31.73;;;16.42;;
4569;SDS011;2297;51.442;6.996;2024-03-22T03:35:19;37.25;;;18.40;;
4569;SDS011;2297;51.442;6.996;2024-03-22T03:37:45;41.15;;;17.08;;
4569;SDS011;2297;51.442;6.996;2024-03-22T03:40:11;35.53;;;16.88;;
4569;SDS011;2297;51.442;6.996;2024-03-22T03:42:37;34.30;;;16.95;;
4569;SDS011;2297;51.442;6.996;2024-03-22T03:45:04;34.40;;;17.52;;
4569;SDS011;2297;51.442;6.996;2024-03-22T03:47:30;37.13;;;17.77;;
4569;SDS011;2297;51.442;6.996;2024-03-22T03:49:57;33.67;;;17.23;;
4569;SDS011;2297;51.442;6.996;2024-03-22T03:52:23;36.22;;;17.42;;
4569;SDS011;2297;51.442;6.996;2024-03-22T03:54:50;38.80;;;17.63;;
4569;SDS011;2297;51.442;6.996;2024-03-22T03:57:16;38.45;;;18.23;;
4569;SDS011;2297;51.442;6.996;2024-03-22T03:59:42;33.40;;;15.85;;
4569;SDS011;2297;51.442;6.996;2024-03-22T04:02:08;38.35;;;17.38;;
4569;SDS011;2297;51.442;6.996;2024-03-22T04:04:35;35.97;;;16.85;;
4569;SDS011;2297;51.442;6.996;2024-03-22T04:07:01;33.05;;;16.70;;
4569;SDS011;2297;51.442;6.996;2024-03-22T04:09:28;36.20;;;17.77;;
4569;SDS011;2297;51.442;6.996;2024-03-22T04:11:54;31.35;;;16.33;;
4569;SDS011;2297;51.442;6.996;2024-03-22T04:14:23;34.38;;;16.92;;
4569;SDS011;2297;51.442;6.996;2024-03-22T04:16:49;32.35;;;17.05;;
4569;SDS011;2297;51.442;6.996;2024-03-22T04:19:16;36.72;;;17.55;;
4569;SDS011;2297;51.442;6.996;2024-03-22T04:21:42;31.52;;;16.58;;
4569;SDS011;2297;51.442;6.996;2024-03-22T04:24:10;32.72;;;16.88;;
4569;SDS011;2297;51.442;6.996;2024-03-22T04:26:35;28.90;;;14.52;;
4569;SDS011;2297;51.442;6.996;2024-03-22T04:29:02;30.88;;;16.67;;
4569;SDS011;2297;51.442;6.996;2024-03-22T04:31:27;34.38;;;17.08;;
4569;SDS011;2297;51.442;6.996;2024-03-22T04:33:54;32.30;;;16.15;;
4569;SDS011;2297;51.442;6.996;2024-03-22T04:36:20;33.22;;;16.90;;
4569;SDS011;2297;51.442;6.996;2024-03-22T04:38:46;34.92;;;16.10;;
4569;SDS011;2297;51.442;6.996;2024-03-22T04:41:14;33.45;;;15.93;;
4569;SDS011;2297;51.442;6.996;2024-03-22T04:43:41;33.45;;;16.38;;
4569;SDS011;2297;51.442;6.996;2024-03-22T04:46:07;37.22;;;17.40;;
4569;SDS011;2297;51.442;6.996;2024-03-22T04:48:34;28.23;;;15.00;;
4569;SDS011;2297;51.442;6.996;2024-03-22T04:51:00;32.60;;;16.13;;
4569;SDS011;2297;51.442;6.996;2024-03-22T04:53:26;28.13;;;16.38;;
4569;SDS011;2297;51.442;6.996;2024-03-22T04:55:52;32.17;;;16.60;;
4569;SDS011;2297;51.442;6.996;2024-03-22T04:58:20;30.15;;;15.10;;
4569;SDS011;2297;51.442;6.996;2024-03-22T05:00:46;33.40;;;15.82;;
4569;SDS011;2297;51.442;6.996;2024-03-22T05:03:14;31.13;;;14.57;;
4569;SDS011;2297;51.442;6.996;2024-03-22T05:05:41;28.17;;;14.32;;
4569;SDS011;2297;51.442;6.996;2024-03-22T05:08:08;28.30;;;15.07;;
4569;SDS011;2297;51.442;6.996;2024-03-22T05:10:34;26.17;;;14.77;;
4569;SDS011;2297;51.442;6.996;2024-03-22T05:13:01;30.83;;;15.65;;
4569;SDS011;2297;51.442;6.996;2024-03-22T05:15:28;29.10;;;15.55;;
4569;SDS011;2297;51.442;6.996;2024-03-22T05:17:56;26.02;;;14.73;;
4569;SDS011;2297;51.442;6.996;2024-03-22T05:20:22;30.80;;;15.68;;
4569;SDS011;2297;51.442;6.996;2024-03-22T05:22:49;26.42;;;14.18;;
4569;SDS011;2297;51.442;6.996;2024-03-22T05:25:15;25.70;;;14.60;;
4569;SDS011;2297;51.442;6.996;2024-03-22T05:27:42;28.90;;;14.90;;
4569;SDS011;2297;51.442;6.996;2024-03-22T05:30:10;28.55;;;14.85;;
4569;SDS011;2297;51.442;6.996;2024-03-22T05:32:39;29.25;;;14.40;;
4569;SDS011;2297;51.442;6.996;2024-03-22T05:35:05;28.67;;;14.60;;
4569;SDS011;2297;51.442;6.996;2024-03-22T05:37:32;27.80;;;15.05;;
4569;SDS011;2297;51.442;6.996;2024-03-22T05:39:59;27.63;;;14.23;;
4569;SDS011;2297;51.442;6.996;2024-03-22T05:42:25;28.02;;;14.57;;
4569;SDS011;2297;51.442;6.996;2024-03-22T05:44:51;25.23;;;13.73;;
4569;SDS011;2297;51.442;6.996;2024-03-22T05:47:20;29.20;;;13.23;;
4569;SDS011;2297;51.442;6.996;2024-03-22T05:49:47;30.45;;;13.30;;
4569;SDS011;2297;51.442;6.996;2024-03-22T05:52:14;26.00;;;14.40;;
4569;SDS011;2297;51.442;6.996;2024-03-22T05:54:39;22.67;;;13.25;;
4569;SDS011;2297;51.442;6.996;2024-03-22T05:57:06;25.60;;;13.43;;
4569;SDS011;2297;51.442;6.996;2024-03-22T05:59:32;25.38;;;13.60;;
4569;SDS011;2297;51.442;6.996;2024-03-22T06:01:59;26.63;;;13.77;;
4569;SDS011;2297;51.442;6.996;2024-03-22T06:04:25;26.63;;;13.02;;
4569;SDS011;2297;51.442;6.996;2024-03-22T06:06:53;26.35;;;13.38;;
4569;SDS011;2297;51.442;6.996;2024-03-22T06:09:19;26.17;;;13.65;;
4569;SDS011;2297;51.442;6.996;2024-03-22T06:11:49;23.42;;;13.13;;
4569;SDS011;2297;51.442;6.996;2024-03-22T06:14:14;25.73;;;13.90;;
4569;SDS011;2297;51.442;6.996;2024-03-22T06:16:41;26.73;;;13.02;;
4569;SDS011;2297;51.442;6.996;2024-03-22T06:19:07;27.95;;;14.20;;
4569;SDS011;2297;51.442;6.996;2024-03-22T06:21:33;28.00;;;13.98;;
4569;SDS011;2297;51.442;6.996;2024-03-22T06:24:00;29.05;;;13.98;;
4569;SDS011;2297;51.442;6.996;2024-03-22T06:26:28;23.27;;;13.45;;
4569;SDS011;2297;51.442;6.996;2024-03-22T06:28:53;23.52;;;12.20;;
4569;SDS011;2297;51.442;6.996;2024-03-22T06:31:20;26.85;;;13.07;;
4569;SDS011;2297;51.442;6.996;2024-03-22T06:33:45;25.80;;;12.90;;
4569;SDS011;2297;51.442;6.996;2024-03-22T06:36:12;28.27;;;13.48;;
4569;SDS011;2297;51.442;6.996;2024-03-22T06:38:38;25.70;;;13.93;;
4569;SDS011;2297;51.442;6.996;2024-03-22T06:41:06;27.50;;;13.98;;
4569;SDS011;2297;51.442;6.996;2024-03-22T06:43:31;21.02;;;12.02;;
4569;SDS011;2297;51.442;6.996;2024-03-22T06:45:58;22.20;;;13.20;;
4569;SDS011;2297;51.442;6.996;2024-03-22T06:48:23;27.85;;;13.20;;
4569;SDS011;2297;51.442;6.996;2024-03-22T06:50:50;21.25;;;12.80;;
4569;SDS011;2297;51.442;6.996;2024-03-22T06:53:16;23.02;;;12.85;;
4569;SDS011;2297;51.442;6.996;2024-03-22T06:55:42;23.88;;;13.07;;
4569;SDS011;2297;51.442;6.996;2024-03-22T06:58:09;21.70;;;12.70;;
4569;SDS011;2297;51.442;6.996;2024-03-22T07:00:36;22.77;;;12.13;;
4569;SDS011;2297;51.442;6.996;2024-03-22T07:03:02;19.67;;;11.85;;
4569;SDS011;2297;51.442;6.996;2024-03-22T07:05:29;21.95;;;12.65;;
4569;SDS011;2297;51.442;6.996;2024-03-22T07:07:55;25.58;;;12.00;;
4569;SDS011;2297;51.442;6.996;2024-03-22T07:10:22;30.42;;;12.85;;
4569;SDS011;2297;51.442;6.996;2024-03-22T07:12:49;25.05;;;13.60;;
4569;SDS011;2297;51.442;6.996;2024-03-22T07:15:18;22.85;;;12.15;;
4569;SDS011;2297;51.442;6.996;2024-03-22T07:17:43;22.95;;;12.68;;
4569;SDS011;2297;51.442;6.996;2024-03-22T07:20:10;25.40;;;13.52;;
4569;SDS011;2297;51.442;6.996;2024-03-22T07:22:36;26.90;;;13.85;;
4569;SDS011;2297;51.442;6.996;2024-03-22T07:25:02;28.92;;;13.45;;
4569;SDS011;2297;51.442;6.996;2024-03-22T07:27:28;23.73;;;13.20;;
4569;SDS011;2297;51.442;6.996;2024-03-22T07:29:56;25.27;;;13.63;;
4569;SDS011;2297;51.442;6.996;2024-03-22T07:32:23;24.55;;;13.35;;
4569;SDS011;2297;51.442;6.996;2024-03-22T07:34:50;25.27;;;13.63;;
4569;SDS011;2297;51.442;6.996;2024-03-22T07:40:03;22.30;;;13.30;;
4569;SDS011;2297;51.442;6.996;2024-03-22T07:42:30;22.83;;;13.15;;
4569;SDS011;2297;51.442;6.996;2024-03-22T07:44:57;24.38;;;12.60;;
4569;SDS011;2297;51.442;6.996;2024-03-22T07:47:24;23.55;;;12.70;;
4569;SDS011;2297;51.442;6.996;2024-03-22T07:49:51;22.83;;;12.27;;
4569;SDS011;2297;51.442;6.996;2024-03-22T07:52:17;23.02;;;13.35;;
4569;SDS011;2297;51.442;6.996;2024-03-22T07:54:43;23.80;;;12.10;;
4569;SDS011;2297;51.442;6.996;2024-03-22T07:57:09;27.15;;;12.52;;
4569;SDS011;2297;51.442;6.996;2024-03-22T07:59:36;22.48;;;12.27;;
4569;SDS011;2297;51.442;6.996;2024-03-22T08:02:02;27.17;;;12.98;;
4569;SDS011;2297;51.442;6.996;2024-03-22T08:04:30;25.58;;;11.98;;
4569;SDS011;2297;51.442;6.996;2024-03-22T08:06:56;21.30;;;12.52;;
4569;SDS011;2297;51.442;6.996;2024-03-22T08:09:22;26.23;;;11.75;;
4569;SDS011;2297;51.442;6.996;2024-03-22T08:11:48;21.20;;;11.85;;
4569;SDS011;2297;51.442;6.996;2024-03-22T08:14:15;21.08;;;12.30;;
4569;SDS011;2297;51.442;6.996;2024-03-22T08:16:41;23.13;;;11.95;;
4569;SDS011;2297;51.442;6.996;2024-03-22T08:19:08;22.27;;;12.48;;
4569;SDS011;2297;51.442;6.996;2024-03-22T08:21:35;21.73;;;11.35;;
4569;SDS011;2297;51.442;6.996;2024-03-22T08:24:02;26.65;;;12.80;;
4569;SDS011;2297;51.442;6.996;2024-03-22T08:26:28;19.88;;;10.93;;
4569;SDS011;2297;51.442;6.996;2024-03-22T08:28:55;20.02;;;10.93;;
4569;SDS011;2297;51.442;6.996;2024-03-22T08:31:20;20.23;;;11.65;;
4569;SDS011;2297;51.442;6.996;2024-03-22T08:33:50;21.35;;;11.70;;
4569;SDS011;2297;51.442;6.996;2024-03-22T08:36:16;20.95;;;11.23;;
4569;SDS011;2297;51.442;6.996;2024-03-22T08:38:44;24.00;;;12.35;;
4569;SDS011;2297;51.442;6.996;2024-03-22T08:41:09;27.13;;;10.60;;
4569;SDS011;2297;51.442;6.996;2024-03-22T08:43:36;20.52;;;11.23;;
4569;SDS011;2297;51.442;6.996;2024-03-22T08:46:02;19.70;;;11.32;;
4569;SDS011;2297;51.442;6.996;2024-03-22T08:48:28;20.90;;;11.60;;
4569;SDS011;2297;51.442;6.996;2024-03-22T08:50:54;21.42;;;11.68;;
4569;SDS011;2297;51.442;6.996;2024-03-22T08:53:21;20.70;;;11.52;;
4569;SDS011;2297;51.442;6.996;2024-03-22T08:55:48;21.17;;;10.85;;
4569;SDS011;2297;51.442;6.996;2024-03-22T08:58:15;21.10;;;10.73;;
4569;SDS011;2297;51.442;6.996;2024-03-22T09:00:42;22.52;;;11.40;;
4569;SDS011;2297;51.442;6.996;2024-03-22T09:03:08;17.48;;;10.48;;
4569;SDS011;2297;51.442;6.996;2024-03-22T09:05:34;17.92;;;10.82;;
4569;SDS011;2297;51.442;6.996;2024-03-22T09:08:01;20.88;;;11.43;;
4569;SDS011;2297;51.442;6.996;2024-03-22T09:10:28;32.60;;;11.55;;
4569;SDS011;2297;51.442;6.996;2024-03-22T09:12:56;24.58;;;11.85;;
4569;SDS011;2297;51.442;6.996;2024-03-22T09:15:22;22.25;;;11.30;;
4569;SDS011;2297;51.442;6.996;2024-03-22T09:17:52;20.13;;;10.90;;
4569;SDS011;2297;51.442;6.996;2024-03-22T09:20:18;22.92;;;11.93;;
4569;SDS011;2297;51.442;6.996;2024-03-22T09:22:44;18.95;;;10.02;;
4569;SDS011;2297;51.442;6.996;2024-03-22T09:25:10;17.83;;;10.43;;
4569;SDS011;2297;51.442;6.996;2024-03-22T09:27:37;23.08;;;10.50;;
4569;SDS011;2297;51.442;6.996;2024-03-22T09:30:04;20.95;;;10.73;;
4569;SDS011;2297;51.442;6.996;2024-03-22T09:32:32;19.77;;;10.57;;
4569;SDS011;2297;51.442;6.996;2024-03-22T09:34:58;17.77;;;10.20;;
4569;SDS011;2297;51.442;6.996;2024-03-22T09:37:24;17.70;;;10.45;;
4569;SDS011;2297;51.442;6.996;2024-03-22T09:39:50;19.17;;;9.77;;
4569;SDS011;2297;51.442;6.996;2024-03-22T09:45:39;18.52;;;9.88;;
4569;SDS011;2297;51.442;6.996;2024-03-22T09:48:06;17.60;;;10.23;;
4569;SDS011;2297;51.442;6.996;2024-03-22T09:50:32;20.02;;;10.98;;
4569;SDS011;2297;51.442;6.996;2024-03-22T09:52:59;22.75;;;10.82;;
4569;SDS011;2297;51.442;6.996;2024-03-22T09:55:25;15.45;;;9.63;;
4569;SDS011;2297;51.442;6.996;2024-03-22T09:57:52;18.52;;;10.15;;
4569;SDS011;2297;51.442;6.996;2024-03-22T10:00:19;18.60;;;10.15;;
4569;SDS011;2297;51.442;6.996;2024-03-22T10:02:48;18.20;;;10.00;;
4569;SDS011;2297;51.442;6.996;2024-03-22T10:05:14;21.75;;;9.85;;
4569;SDS011;2297;51.442;6.996;2024-03-22T10:07:43;21.65;;;10.95;;
4569;SDS011;2297;51.442;6.996;2024-03-22T10:10:08;23.08;;;9.90;;
4569;SDS011;2297;51.442;6.996;2024-03-22T10:12:35;23.58;;;10.70;;
4569;SDS011;2297;51.442;6.996;2024-03-22T10:15:01;19.10;;;10.65;;
4569;SDS011;2297;51.442;6.996;2024-03-22T10:17:28;22.00;;;10.75;;
4569;SDS011;2297;51.442;6.996;2024-03-22T10:19:55;21.05;;;10.05;;
4569;SDS011;2297;51.442;6.996;2024-03-22T10:25:26;22.70;;;11.00;;
4569;SDS011;2297;51.442;6.996;2024-03-22T10:27:53;26.00;;;11.13;;
4569;SDS011;2297;51.442;6.996;2024-03-22T10:30:20;18.00;;;9.73;;
4569;SDS011;2297;51.442;6.996;2024-03-22T10:32:46;19.77;;;10.25;;
4569;SDS011;2297;51.442;6.996;2024-03-22T10:35:16;17.05;;;9.80;;
4569;SDS011;2297;51.442;6.996;2024-03-22T10:37:42;20.90;;;10.38;;
4569;SDS011;2297;51.442;6.996;2024-03-22T10:40:09;15.18;;;10.00;;
4569;SDS011;2297;51.442;6.996;2024-03-22T10:42:37;16.55;;;9.70;;
4569;SDS011;2297;51.442;6.996;2024-03-22T10:45:05;18.13;;;10.05;;
4569;SDS011;2297;51.442;6.996;2024-03-22T10:47:33;18.38;;;9.63;;
4569;SDS011;2297;51.442;6.996;2024-03-22T10:50:04;21.85;;;10.60;;
4569;SDS011;2297;51.442;6.996;2024-03-22T10:52:33;21.27;;;9.57;;
4569;SDS011;2297;51.442;6.996;2024-03-22T10:55:15;17.98;;;9.55;;
4569;SDS011;2297;51.442;6.996;2024-03-22T10:57:45;18.02;;;9.18;;
4569;SDS011;2297;51.442;6.996;2024-03-22T11:00:12;15.52;;;8.80;;
4569;SDS011;2297;51.442;6.996;2024-03-22T11:02:42;15.10;;;8.52;;
4569;SDS011;2297;51.442;6.996;2024-03-22T11:05:15;19.02;;;8.68;;
4569;SDS011;2297;51.442;6.996;2024-03-22T11:07:44;14.13;;;7.88;;
4569;SDS011;2297;51.442;6.996;2024-03-22T11:10:11;18.55;;;8.32;;
4569;SDS011;2297;51.442;6.996;2024-03-22T11:12:37;13.40;;;7.35;;
4569;SDS011;2297;51.442;6.996;2024-03-22T11:15:04;16.42;;;7.75;;
4569;SDS011;2297;51.442;6.996;2024-03-22T11:17:30;13.43;;;8.05;;
4569;SDS011;2297;51.442;6.996;2024-03-22T11:19:57;14.45;;;7.63;;
4569;SDS011;2297;51.442;6.996;2024-03-22T11:22:24;12.35;;;7.22;;
4569;SDS011;2297;51.442;6.996;2024-03-22T11:24:53;14.07;;;7.03;;
4569;SDS011;2297;51.442;6.996;2024-03-22T11:27:18;10.77;;;6.85;;
4569;SDS011;2297;51.442;6.996;2024-03-22T11:29:45;12.63;;;6.82;;
4569;SDS011;2297;51.442;6.996;2024-03-22T11:32:11;12.93;;;6.82;;
4569;SDS011;2297;51.442;6.996;2024-03-22T11:34:38;12.25;;;6.75;;
4569;SDS011;2297;51.442;6.996;2024-03-22T11:37:06;12.80;;;6.38;;
4569;SDS011;2297;51.442;6.996;2024-03-22T11:39:35;14.90;;;7.78;;
4569;SDS011;2297;51.442;6.996;2024-03-22T11:42:02;13.15;;;7.43;;
4569;SDS011;2297;51.442;6.996;2024-03-22T11:44:30;13.27;;;6.90;;
4569;SDS011;2297;51.442;6.996;2024-03-22T11:46:58;13.95;;;7.88;;
4569;SDS011;2297;51.442;6.996;2024-03-22T11:49:24;13.95;;;8.00;;
4569;SDS011;2297;51.442;6.996;2024-03-22T11:51:51;16.02;;;9.98;;
4569;SDS011;2297;51.442;6.996;2024-03-22T11:54:18;18.55;;;8.38;;
4569;SDS011;2297;51.442;6.996;2024-03-22T11:56:45;15.00;;;8.43;;
4569;SDS011;2297;51.442;6.996;2024-03-22T11:59:13;14.48;;;7.93;;
4569;SDS011;2297;51.442;6.996;2024-03-22T12:01:40;18.17;;;8.48;;
4569;SDS011;2297;51.442;6.996;2024-03-22T12:04:06;15.45;;;7.95;;
4569;SDS011;2297;51.442;6.996;2024-03-22T12:06:33;14.23;;;7.32;;
4569;SDS011;2297;51.442;6.996;2024-03-22T12:09:01;13.23;;;7.28;;
4569;SDS011;2297;51.442;6.996;2024-03-22T12:11:28;14.32;;;7.70;;
4569;SDS011;2297;51.442;6.996;2024-03-22T12:13:55;9.95;;;6.95;;
4569;SDS011;2297;51.442;6.996;2024-03-22T12:16:22;14.95;;;8.32;;
4569;SDS011;2297;51.442;6.996;2024-03-22T12:18:49;13.27;;;8.07;;
4569;SDS011;2297;51.442;6.996;2024-03-22T12:21:15;12.40;;;7.47;;
4569;SDS011;2297;51.442;6.996;2024-03-22T12:23:41;12.88;;;7.82;;
4569;SDS011;2297;51.442;6.996;2024-03-22T12:26:07;15.43;;;8.52;;
4569;SDS011;2297;51.442;6.996;2024-03-22T12:28:33;15.20;;;8.93;;
4569;SDS011;2297;51.442;6.996;2024-03-22T12:30:59;15.90;;;8.90;;
4569;SDS011;2297;51.442;6.996;2024-03-22T12:33:27;15.60;;;8.75;;
4569;SDS011;2297;51.442;6.996;2024-03-22T12:35:53;15.48;;;9.32;;
4569;SDS011;2297;51.442;6.996;2024-03-22T12:38:19;18.10;;;9.70;;
4569;SDS011;2297;51.442;6.996;2024-03-22T12:40:45;17.05;;;9.82;;
4569;SDS011;2297;51.442;6.996;2024-03-22T12:43:12;17.50;;;9.90;;
4569;SDS011;2297;51.442;6.996;2024-03-22T12:45:37;16.65;;;9.10;;
4569;SDS011;2297;51.442;6.996;2024-03-22T12:48:04;15.75;;;9.93;;
4569;SDS011;2297;51.442;6.996;2024-03-22T12:50:32;17.70;;;10.00;;
4569;SDS011;2297;51.442;6.996;2024-03-22T12:52:59;18.63;;;9.90;;
4569;SDS011;2297;51.442;6.996;2024-03-22T12:55:24;18.45;;;9.88;;
4569;SDS011;2297;51.442;6.996;2024-03-22T12:57:53;19.17;;;9.75;;
4569;SDS011;2297;51.442;6.996;2024-03-22T13:00:19;22.63;;;10.93;;
4569;SDS011;2297;51.442;6.996;2024-03-22T13:02:45;17.00;;;9.75;;
4569;SDS011;2297;51.442;6.996;2024-03-22T13:05:12;22.33;;;10.75;;
4569;SDS011;2297;51.442;6.996;2024-03-22T13:07:41;18.58;;;10.77;;
4569;SDS011;2297;51.442;6.996;2024-03-22T13:10:07;19.63;;;10.98;;
4569;SDS011;2297;51.442;6.996;2024-03-22T13:12:35;17.15;;;11.00;;
4569;SDS011;2297;51.442;6.996;2024-03-22T13:15:00;20.48;;;11.15;;
4569;SDS011;2297;51.442;6.996;2024-03-22T13:17:28;21.73;;;12.48;;
4569;SDS011;2297;51.442;6.996;2024-03-22T13:19:53;19.10;;;11.30;;
4569;SDS011;2297;51.442;6.996;2024-03-22T13:22:20;22.35;;;12.00;;
4569;SDS011;2297;51.442;6.996;2024-03-22T13:24:47;19.65;;;12.05;;
4569;SDS011;2297;51.442;6.996;2024-03-22T13:27:15;23.98;;;11.82;;
4569;SDS011;2297;51.442;6.996;2024-03-22T13:29:41;21.35;;;12.13;;
4569;SDS011;2297;51.442;6.996;2024-03-22T13:32:08;19.23;;;11.75;;
4569;SDS011;2297;51.442;6.996;2024-03-22T13:34:34;19.60;;;12.02;;
4569;SDS011;2297;51.442;6.996;2024-03-22T13:37:00;17.80;;;11.45;;
4569;SDS011;2297;51.442;6.996;2024-03-22T13:39:26;25.98;;;12.20;;
4569;SDS011;2297;51.442;6.996;2024-03-22T13:41:55;18.42;;;11.52;;
4569;SDS011;2297;51.442;6.996;2024-03-22T13:44:22;22.20;;;10.98;;
4569;SDS011;2297;51.442;6.996;2024-03-22T13:46:49;19.23;;;10.85;;
4569;SDS011;2297;51.442;6.996;2024-03-22T13:49:16;17.80;;;11.48;;
4569;SDS011;2297;51.442;6.996;2024-03-22T13:51:42;16.90;;;10.70;;
4569;SDS011;2297;51.442;6.996;2024-03-22T13:54:09;16.63;;;10.30;;
4569;SDS011;2297;51.442;6.996;2024-03-22T13:56:36;17.65;;;10.73;;
4569;SDS011;2297;51.442;6.996;2024-03-22T13:59:05;18.83;;;11.43;;
4569;SDS011;2297;51.442;6.996;2024-03-22T14:01:31;21.75;;;11.73;;
4569;SDS011;2297;51.442;6.996;2024-03-22T14:03:58;22.83;;;11.10;;
4569;SDS011;2297;51.442;6.996;2024-03-22T14:06:23;18.55;;;11.15;;
4569;SDS011;2297;51.442;6.996;2024-03-22T14:08:50;16.83;;;10.68;;
4569;SDS011;2297;51.442;6.996;2024-03-22T14:11:19;17.42;;;10.93;;
4569;SDS011;2297;51.442;6.996;2024-03-22T14:13:46;17.58;;;10.45;;
4569;SDS011;2297;51.442;6.996;2024-03-22T14:16:12;18.40;;;10.50;;
4569;SDS011;2297;51.442;6.996;2024-03-22T14:18:39;16.40;;;10.88;;
4569;SDS011;2297;51.442;6.996;2024-03-22T14:21:05;16.60;;;10.02;;
4569;SDS011;2297;51.442;6.996;2024-03-22T14:23:31;19.52;;;11.82;;
4569;SDS011;2297;51.442;6.996;2024-03-22T14:25:57;24.33;;;12.55;;
4569;SDS011;2297;51.442;6.996;2024-03-22T14:28:24;25.10;;;14.70;;
4569;SDS011;2297;51.442;6.996;2024-03-22T14:30:49;22.48;;;12.35;;
4569;SDS011;2297;51.442;6.996;2024-03-22T14:33:17;22.98;;;12.43;;
4569;SDS011;2297;51.442;6.996;2024-03-22T14:35:43;23.98;;;13.35;;
4569;SDS011;2297;51.442;6.996;2024-03-22T14:38:10;21.33;;;13.32;;
4569;SDS011;2297;51.442;6.996;2024-03-22T14:40:35;19.00;;;12.20;;
4569;SDS011;2297;51.442;6.996;2024-03-22T14:43:03;21.55;;;13.68;;
4569;SDS011;2297;51.442;6.996;2024-03-22T14:45:29;22.80;;;13.40;;
4569;SDS011;2297;51.442;6.996;2024-03-22T14:47:56;24.27;;;12.95;;
4569;SDS011;2297;51.442;6.996;2024-03-22T14:50:23;26.33;;;13.77;;
4569;SDS011;2297;51.442;6.996;2024-03-22T14:52:50;24.75;;;14.57;;
4569;SDS011;2297;51.442;6.996;2024-03-22T14:55:17;24.60;;;14.63;;